Terminal Aerodrome Forecast
Issued by NWS

Home | Current Version | Previous Version | Text Only | Print | Product List | Glossary On
Versions: 1 2 3 4 5 6 7 8 9 10 11 12
000
FTUS44 KBMX 280520
TAFMGM
TAF
KMGM 280520Z 2806/2906 00000KT P6SM SKC
     FM281200 08003KT P6SM SCT080
     FM281600 10009KT P6SM SCT050 BKN100
      TEMPO 2820/2823 TSRA BKN050CB=

USA.gov is the U.S. government's official web portal to all federal, state and local government web resources and services.